Time;durP1;ratioP1;P1;durP2;ratioP2;P2;SDS_P1;SDS_P2;PMS_P1;PMS_P2;Temp;Humidity;BMP_temperature;BMP_pressure;BME280_temperature;BME280_humidity;BME280_pressure;Samples;Min_cycle;Max_cycle;Signal;HPM_P1;HPM_P2
2024/02/11 00:01:13;;;;;;;2.90;2.70;;;8.00;99.90;;;;;;5044127;28;20215;-73
2024/02/11 00:03:41;;;;;;;3.40;3.20;;;8.00;99.90;;;;;;5046813;28;20253;-73
2024/02/11 00:06:11;;;;;;;3.55;3.35;;;8.00;99.90;;;;;;5043921;28;20710;-73
2024/02/11 00:08:39;;;;;;;3.22;3.03;;;7.90;99.90;;;;;;5045336;28;20235;-73
2024/02/11 00:11:07;;;;;;;3.47;3.20;;;7.90;99.90;;;;;;5045033;28;20260;-73
2024/02/11 00:13:34;;;;;;;3.92;3.10;;;7.90;99.90;;;;;;5049760;28;20288;-73
2024/02/11 00:16:02;;;;;;;4.43;4.03;;;7.90;99.90;;;;;;5045920;28;20317;-73
2024/02/11 00:18:29;;;;;;;13.50;9.85;;;7.90;99.90;;;;;;5043235;28;20202;-73
2024/02/11 00:20:56;;;;;;;12.48;9.50;;;7.90;99.90;;;;;;5045848;28;21240;-74
2024/02/11 00:23:25;;;;;;;15.55;10.82;;;7.90;99.90;;;;;;5040699;28;20210;-74
2024/02/11 00:25:53;;;;;;;11.43;9.45;;;7.90;99.90;;;;;;5039971;28;20227;-74
2024/02/11 00:28:21;;;;;;;9.93;7.57;;;7.80;99.90;;;;;;5047911;28;20199;-74
2024/02/11 00:30:49;;;;;;;6.97;6.28;;;7.90;99.90;;;;;;5043930;28;20223;-74
2024/02/11 00:33:19;;;;;;;7.15;6.15;;;7.80;99.90;;;;;;5043578;28;20242;-74
2024/02/11 00:35:47;;;;;;;5.88;5.38;;;7.80;99.90;;;;;;5053322;28;20395;-74
2024/02/11 00:38:15;;;;;;;4.90;4.40;;;7.80;99.90;;;;;;5042431;28;20290;-73
2024/02/11 00:40:44;;;;;;;4.28;3.88;;;7.80;99.90;;;;;;5041409;28;20642;-73
2024/02/11 00:43:12;;;;;;;3.90;3.60;;;7.80;99.90;;;;;;5057653;28;20211;-73
2024/02/11 00:45:40;;;;;;;3.90;3.60;;;7.80;99.90;;;;;;5044822;28;20222;-73
2024/02/11 00:48:10;;;;;;;3.30;3.10;;;7.70;99.90;;;;;;5045335;28;20259;-73
2024/02/11 00:50:37;;;;;;;3.38;3.08;;;7.70;99.90;;;;;;5044598;28;20623;-73
2024/02/11 00:53:05;;;;;;;2.85;2.75;;;7.70;99.90;;;;;;5047809;28;20288;-73
2024/02/11 00:55:33;;;;;;;3.13;2.92;;;7.70;99.90;;;;;;5049764;28;20272;-73
2024/02/11 00:58:02;;;;;;;3.03;2.83;;;7.70;99.90;;;;;;5043217;28;20207;-73
2024/02/11 01:00:30;;;;;;;2.60;2.50;;;7.60;99.90;;;;;;5045408;28;20599;-73
2024/02/11 01:02:57;;;;;;;2.75;2.55;;;7.60;99.90;;;;;;5045964;28;20213;-73
2024/02/11 01:05:24;;;;;;;2.72;2.53;;;7.60;99.90;;;;;;5045904;28;20241;-73
2024/02/11 01:07:51;;;;;;;2.55;2.45;;;7.60;99.90;;;;;;5046074;28;20288;-73
2024/02/11 01:10:21;;;;;;;2.65;2.45;;;7.60;99.90;;;;;;5044689;28;20226;-73
2024/02/11 01:12:49;;;;;;;2.47;2.30;;;7.60;99.90;;;;;;5044475;28;20203;-73
2024/02/11 01:15:18;;;;;;;2.10;2.00;;;7.60;99.90;;;;;;5044935;28;20234;-73
2024/02/11 01:17:48;;;;;;;2.78;2.60;;;7.70;99.90;;;;;;5048535;28;20202;-73
2024/02/11 01:20:16;;;;;;;2.28;2.17;;;7.70;99.90;;;;;;5043419;28;20223;-73
2024/02/11 01:22:44;;;;;;;2.38;2.28;;;7.70;99.90;;;;;;5041753;28;20202;-73
2024/02/11 01:25:11;;;;;;;3.42;3.22;;;7.70;99.90;;;;;;5045311;28;20774;-73
2024/02/11 01:27:39;;;;;;;3.45;3.15;;;7.70;99.90;;;;;;5045673;28;20223;-73
2024/02/11 01:30:08;;;;;;;3.72;3.35;;;7.80;99.90;;;;;;5046436;28;20258;-72
2024/02/11 01:32:37;;;;;;;3.30;3.10;;;7.70;99.90;;;;;;5048974;28;20199;-74
2024/02/11 01:35:06;;;;;;;3.58;3.38;;;7.70;99.90;;;;;;5043305;28;20312;-72
2024/02/11 01:37:34;;;;;;;3.38;3.17;;;7.70;99.90;;;;;;5046234;28;20218;-73
2024/02/11 01:40:01;;;;;;;3.60;3.40;;;7.60;99.90;;;;;;5046096;28;20314;-73
2024/02/11 01:42:28;;;;;;;3.70;3.50;;;7.60;99.90;;;;;;5049689;28;20581;-73
2024/02/11 01:44:56;;;;;;;3.90;3.60;;;7.60;99.90;;;;;;5047990;28;20227;-73
2024/02/11 01:47:24;;;;;;;3.20;3.00;;;7.60;99.90;;;;;;5059317;28;20213;-73
2024/02/11 01:49:54;;;;;;;2.90;2.70;;;7.70;99.90;;;;;;5048399;28;20277;-74
2024/02/11 01:52:21;;;;;;;3.25;3.05;;;7.70;99.90;;;;;;5046198;28;20774;-73
2024/02/11 01:54:48;;;;;;;3.05;2.85;;;7.70;99.90;;;;;;5053285;28;20308;-74
2024/02/11 01:57:15;;;;;;;2.85;2.65;;;7.70;99.90;;;;;;5046698;28;20497;-75
2024/02/11 01:59:43;;;;;;;2.90;2.70;;;7.70;99.90;;;;;;5047616;28;20223;-75
2024/02/11 02:02:16;;;;;;;3.67;3.38;;;7.80;99.90;;;;;;5047759;28;20241;-74
2024/02/11 02:04:45;;;;;;;4.80;4.50;;;7.80;99.90;;;;;;5049004;28;20219;-75
2024/02/11 02:07:16;;;;;;;5.28;4.88;;;7.80;99.90;;;;;;5046621;28;20222;-75
2024/02/11 02:09:43;;;;;;;6.07;5.57;;;7.70;99.90;;;;;;5048473;28;20234;-73
2024/02/11 02:12:10;;;;;;;5.10;4.60;;;7.70;99.90;;;;;;5046012;28;20612;-73
2024/02/11 02:14:38;;;;;;;6.00;5.50;;;7.70;99.90;;;;;;5045438;28;20203;-73
2024/02/11 02:17:05;;;;;;;5.57;5.18;;;7.70;99.90;;;;;;5043552;28;20215;-73
2024/02/11 02:19:32;;;;;;;5.05;4.55;;;7.70;99.90;;;;;;5043884;28;20381;-73
2024/02/11 02:22:02;;;;;;;4.93;4.60;;;7.70;99.90;;;;;;5047000;28;20215;-73
2024/02/11 02:24:29;;;;;;;4.70;4.40;;;7.70;99.90;;;;;;5041138;28;20280;-74
2024/02/11 02:26:55;;;;;;;4.85;4.45;;;7.70;99.90;;;;;;5049082;28;20292;-73
2024/02/11 02:29:22;;;;;;;4.55;4.15;;;7.70;99.90;;;;;;5046331;28;20292;-73
2024/02/11 02:31:50;;;;;;;4.78;4.10;;;7.70;99.90;;;;;;5046433;28;20262;-74
2024/02/11 02:34:17;;;;;;;5.35;4.85;;;7.70;99.90;;;;;;5047114;28;20663;-74
2024/02/11 02:36:48;;;;;;;5.00;4.50;;;7.70;99.90;;;;;;5043583;28;20238;-74
2024/02/11 02:39:16;;;;;;;6.10;5.15;;;7.70;99.90;;;;;;5041280;28;20207;-74
2024/02/11 02:41:43;;;;;;;4.90;4.60;;;7.70;99.90;;;;;;5060480;28;20225;-74
2024/02/11 02:44:10;;;;;;;5.22;4.82;;;7.70;99.90;;;;;;5047238;28;20292;-74
2024/02/11 02:46:37;;;;;;;5.28;4.88;;;7.70;99.90;;;;;;5048677;28;20254;-74
2024/02/11 02:49:04;;;;;;;5.13;4.72;;;7.60;99.90;;;;;;5049475;28;20210;-74
2024/02/11 02:51:32;;;;;;;4.60;4.22;;;7.60;99.90;;;;;;5045053;28;20317;-74
2024/02/11 02:54:02;;;;;;;5.10;4.70;;;7.70;99.90;;;;;;5043213;28;20245;-74
2024/02/11 02:56:34;;;;;;;4.63;4.32;;;7.60;99.90;;;;;;5043770;28;20747;-74
2024/02/11 02:59:05;;;;;;;5.10;4.70;;;7.70;99.90;;;;;;5049425;28;20281;-74
2024/02/11 03:01:32;;;;;;;4.50;4.20;;;7.60;99.90;;;;;;5054410;28;20227;-74
2024/02/11 03:04:02;;;;;;;4.60;4.30;;;7.60;99.90;;;;;;5046385;28;20293;-74
2024/02/11 03:06:29;;;;;;;3.65;3.38;;;7.60;99.90;;;;;;5039903;28;20352;-73
2024/02/11 03:08:56;;;;;;;4.20;3.90;;;7.60;99.90;;;;;;5043414;28;20653;-73
2024/02/11 03:11:24;;;;;;;4.65;4.25;;;7.60;99.90;;;;;;5045407;28;20242;-73
2024/02/11 03:13:52;;;;;;;4.70;4.40;;;7.60;99.90;;;;;;5045434;28;20248;-73
2024/02/11 03:16:20;;;;;;;5.30;4.85;;;7.60;99.90;;;;;;5044206;28;20281;-73
2024/02/11 03:18:47;;;;;;;6.18;5.68;;;7.60;99.90;;;;;;5048881;28;20195;-73
2024/02/11 03:21:15;;;;;;;6.25;5.75;;;7.60;99.90;;;;;;5050313;28;20218;-73
2024/02/11 03:23:42;;;;;;;6.88;6.28;;;7.60;99.90;;;;;;5044533;28;20199;-73
2024/02/11 03:26:09;;;;;;;5.88;5.38;;;7.60;99.90;;;;;;5047586;28;20291;-73
2024/02/11 03:28:37;;;;;;;6.30;5.80;;;7.60;99.90;;;;;;5050878;28;20924;-73
2024/02/11 03:31:06;;;;;;;6.45;5.95;;;7.60;99.90;;;;;;5047735;28;20258;-73
2024/02/11 03:33:33;;;;;;;6.03;5.53;;;7.50;99.90;;;;;;5044110;28;20229;-74
2024/02/11 03:36:00;;;;;;;5.57;5.07;;;7.50;99.90;;;;;;5045789;28;20763;-73
2024/02/11 03:38:27;;;;;;;5.28;4.88;;;7.50;99.90;;;;;;5043412;28;20300;-74
2024/02/11 03:40:55;;;;;;;4.57;4.28;;;7.60;99.90;;;;;;5045621;28;20243;-74
2024/02/11 03:43:22;;;;;;;4.60;4.20;;;7.50;99.90;;;;;;5027254;28;20208;-73
2024/02/11 03:45:50;;;;;;;4.20;3.90;;;7.50;99.90;;;;;;5047064;28;20883;-73
2024/02/11 03:48:19;;;;;;;3.97;3.67;;;7.50;99.90;;;;;;5046081;28;20297;-74
2024/02/11 03:50:47;;;;;;;4.28;3.88;;;7.50;99.90;;;;;;5045366;28;20239;-73
2024/02/11 03:53:18;;;;;;;3.80;3.60;;;7.50;99.90;;;;;;5048329;28;20203;-73
2024/02/11 03:55:46;;;;;;;3.50;3.30;;;7.50;99.90;;;;;;5043092;28;20230;-73
2024/02/11 03:58:15;;;;;;;3.70;3.50;;;7.50;99.90;;;;;;5048164;28;20194;-73
2024/02/11 04:00:44;;;;;;;3.88;3.58;;;7.50;99.90;;;;;;5048136;28;20228;-73
2024/02/11 04:03:12;;;;;;;3.75;3.45;;;7.50;99.90;;;;;;5049889;28;20199;-73
2024/02/11 04:05:43;;;;;;;4.32;4.00;;;7.50;99.90;;;;;;5046682;28;20777;-73
2024/02/11 04:08:11;;;;;;;4.03;3.72;;;7.50;99.90;;;;;;5044718;28;20222;-73
2024/02/11 04:10:39;;;;;;;4.80;4.50;;;7.50;99.90;;;;;;5045415;28;20272;-73
2024/02/11 04:13:09;;;;;;;4.50;4.20;;;7.50;99.90;;;;;;5049414;28;20222;-73
2024/02/11 04:15:37;;;;;;;4.28;3.97;;;7.40;99.90;;;;;;5053497;28;20221;-74
2024/02/11 04:18:10;;;;;;;4.45;4.15;;;7.50;99.90;;;;;;5049451;28;20209;-73
2024/02/11 04:20:37;;;;;;;4.82;4.43;;;7.40;99.90;;;;;;5051174;28;20234;-73
2024/02/11 04:23:07;;;;;;;5.22;4.82;;;7.50;99.90;;;;;;5047720;28;20278;-73
2024/02/11 04:25:36;;;;;;;5.55;5.05;;;7.50;99.90;;;;;;5053624;28;20241;-73
2024/02/11 04:28:07;;;;;;;4.25;3.95;;;7.50;99.90;;;;;;5050733;28;20207;-74
2024/02/11 04:30:37;;;;;;;6.05;5.55;;;7.50;99.90;;;;;;5046368;28;20230;-73
2024/02/11 04:33:04;;;;;;;4.85;4.45;;;7.50;99.90;;;;;;5038610;28;20219;-73
2024/02/11 04:35:33;;;;;;;5.00;4.60;;;7.50;99.90;;;;;;5051768;28;20294;-74
2024/02/11 04:38:00;;;;;;;4.95;4.65;;;7.50;99.90;;;;;;5044539;28;20199;-73
2024/02/11 04:40:29;;;;;;;4.80;4.50;;;7.50;99.90;;;;;;5047417;28;20246;-73
2024/02/11 04:42:56;;;;;;;5.00;4.60;;;7.60;99.90;;;;;;5048753;28;20284;-73
2024/02/11 04:45:25;;;;;;;4.43;3.97;;;7.60;99.90;;;;;;5049398;28;20222;-73
2024/02/11 04:47:58;;;;;;;5.05;4.65;;;7.60;99.90;;;;;;5047756;28;20294;-73
2024/02/11 04:50:26;;;;;;;5.70;5.20;;;7.60;99.90;;;;;;5045638;28;20627;-73
2024/02/11 04:52:55;;;;;;;5.20;4.80;;;7.50;99.90;;;;;;5049944;28;20235;-73
2024/02/11 04:55:27;;;;;;;4.60;4.30;;;7.60;99.90;;;;;;5047581;28;20729;-73
2024/02/11 04:57:58;;;;;;;5.18;4.78;;;7.60;99.90;;;;;;5049755;28;20227;-73
2024/02/11 05:00:26;;;;;;;5.32;4.85;;;7.60;99.90;;;;;;5046523;28;20238;-73
2024/02/11 05:02:55;;;;;;;5.43;5.03;;;7.50;99.90;;;;;;5050988;28;20204;-73
2024/02/11 05:05:28;;;;;;;5.72;5.30;;;7.50;99.90;;;;;;5049509;28;20265;-73
2024/02/11 05:07:56;;;;;;;5.35;4.90;;;7.60;99.90;;;;;;5049006;28;20213;-73
2024/02/11 05:10:26;;;;;;;5.70;5.20;;;7.60;99.90;;;;;;5050774;28;20954;-73
2024/02/11 05:12:56;;;;;;;5.82;5.32;;;7.60;99.90;;;;;;5046858;28;20215;-74
2024/02/11 05:15:24;;;;;;;6.53;6.03;;;7.60;99.90;;;;;;5051150;28;20313;-74
2024/02/11 05:17:54;;;;;;;6.10;5.60;;;7.60;99.90;;;;;;5045764;28;20195;-74
2024/02/11 05:20:22;;;;;;;6.50;5.88;;;7.60;99.90;;;;;;5049902;28;20226;-74
2024/02/11 05:22:51;;;;;;;6.10;5.60;;;7.50;99.90;;;;;;5047967;28;20226;-74
2024/02/11 05:25:20;;;;;;;5.88;5.47;;;7.50;99.90;;;;;;5051056;28;20647;-74
2024/02/11 05:27:55;;;;;;;5.25;4.80;;;7.50;99.90;;;;;;5062920;28;20195;-72
2024/02/11 05:30:24;;;;;;;7.15;5.88;;;7.50;99.90;;;;;;5048569;28;20222;-73
2024/02/11 05:32:53;;;;;;;6.70;6.15;;;7.50;99.90;;;;;;5048646;28;20218;-74
2024/02/11 05:35:23;;;;;;;6.88;6.28;;;7.50;99.90;;;;;;5048036;28;20237;-74
2024/02/11 05:37:58;;;;;;;7.15;6.45;;;7.50;99.90;;;;;;5053449;28;20252;-74
2024/02/11 05:40:27;;;;;;;7.95;7.25;;;7.40;99.90;;;;;;5050793;28;20225;-74
2024/02/11 05:42:55;;;;;;;7.78;6.93;;;7.50;99.90;;;;;;5056185;28;20718;-74
2024/02/11 05:45:24;;;;;;;7.50;6.80;;;7.50;99.90;;;;;;5049115;28;20227;-74
2024/02/11 05:47:52;;;;;;;6.95;6.35;;;7.40;99.90;;;;;;5049698;28;20203;-74
2024/02/11 05:50:20;;;;;;;8.35;7.57;;;7.50;99.90;;;;;;5046514;28;20235;-74
2024/02/11 05:52:47;;;;;;;7.40;6.70;;;7.40;99.90;;;;;;5048286;28;20730;-74
2024/02/11 05:55:16;;;;;;;6.88;6.28;;;7.50;99.90;;;;;;5048396;28;20246;-74
2024/02/11 05:57:44;;;;;;;8.20;7.50;;;7.50;99.90;;;;;;5045143;28;20286;-74
2024/02/11 06:00:12;;;;;;;8.07;7.38;;;7.50;99.90;;;;;;5045981;28;20573;-74
2024/02/11 06:02:45;;;;;;;7.82;7.13;;;7.50;99.90;;;;;;5044816;28;20202;-74
2024/02/11 06:05:13;;;;;;;7.60;6.90;;;7.50;99.90;;;;;;5043051;28;20257;-74
2024/02/11 06:07:41;;;;;;;8.68;7.88;;;7.50;99.90;;;;;;5045244;28;20294;-74
2024/02/11 06:10:11;;;;;;;7.78;7.07;;;7.50;99.90;;;;;;5049749;28;20246;-74
2024/02/11 06:12:38;;;;;;;7.72;7.13;;;7.50;99.90;;;;;;5044663;28;20992;-74
2024/02/11 06:15:08;;;;;;;7.75;7.05;;;7.50;99.90;;;;;;5048895;28;20241;-74
2024/02/11 06:17:36;;;;;;;6.88;6.35;;;7.50;99.90;;;;;;5046780;28;20835;-74
2024/02/11 06:20:09;;;;;;;7.57;6.75;;;7.60;99.90;;;;;;5048290;28;20236;-74
2024/02/11 06:22:36;;;;;;;8.23;7.43;;;7.60;99.90;;;;;;5040407;28;20604;-74
2024/02/11 06:25:03;;;;;;;8.13;7.43;;;7.60;99.90;;;;;;5049075;28;20230;-73
2024/02/11 06:27:32;;;;;;;9.00;8.00;;;7.60;99.90;;;;;;5043292;28;20274;-74
2024/02/11 06:29:59;;;;;;;9.50;8.60;;;7.60;99.90;;;;;;5043288;28;20736;-73
2024/02/11 06:32:27;;;;;;;8.13;7.38;;;7.50;99.90;;;;;;5045776;28;20227;-73
2024/02/11 06:34:54;;;;;;;9.10;8.30;;;7.40;99.90;;;;;;5049786;28;20311;-73
2024/02/11 06:37:24;;;;;;;9.85;8.95;;;7.40;99.90;;;;;;5044947;28;20199;-74
2024/02/11 06:39:51;;;;;;;9.57;8.68;;;7.40;99.90;;;;;;5054838;28;20226;-74
2024/02/11 06:42:18;;;;;;;8.95;8.05;;;7.50;99.90;;;;;;5051371;28;20664;-74
2024/02/11 06:44:46;;;;;;;9.43;8.52;;;7.40;99.90;;;;;;5050481;28;20199;-74
2024/02/11 06:47:14;;;;;;;8.48;7.65;;;7.50;99.90;;;;;;5046636;28;20240;-74
2024/02/11 06:49:41;;;;;;;7.97;7.28;;;7.50;99.90;;;;;;5047025;28;20265;-74
2024/02/11 06:52:09;;;;;;;7.50;6.88;;;7.50;99.90;;;;;;5046307;28;20338;-74
2024/02/11 06:54:39;;;;;;;8.93;8.13;;;7.50;99.90;;;;;;5046114;28;20195;-74
2024/02/11 06:57:06;;;;;;;8.20;7.47;;;7.50;99.90;;;;;;5048005;28;20226;-74
2024/02/11 06:59:33;;;;;;;8.30;7.50;;;7.60;99.90;;;;;;5050477;28;20273;-74
2024/02/11 07:02:00;;;;;;;8.05;7.35;;;7.60;99.90;;;;;;5043413;28;20219;-74
2024/02/11 07:04:32;;;;;;;7.90;7.30;;;7.60;99.90;;;;;;5045431;28;20231;-73
2024/02/11 07:06:59;;;;;;;8.88;8.07;;;7.60;99.90;;;;;;5035550;28;20229;-74
2024/02/11 07:09:26;;;;;;;8.55;7.85;;;7.70;99.90;;;;;;5046411;28;20260;-74
2024/02/11 07:11:55;;;;;;;8.18;7.47;;;7.70;99.90;;;;;;5045503;28;21456;-74
2024/02/11 07:14:23;;;;;;;8.88;8.07;;;7.70;99.90;;;;;;5047476;28;20207;-74
2024/02/11 07:16:51;;;;;;;8.07;7.38;;;7.70;99.90;;;;;;5048784;28;20234;-74
2024/02/11 07:19:19;;;;;;;9.15;8.35;;;7.70;99.90;;;;;;5045794;28;20203;-74
2024/02/11 07:21:46;;;;;;;8.38;7.68;;;7.70;99.90;;;;;;5047413;28;20228;-74
2024/02/11 07:24:13;;;;;;;8.15;7.45;;;7.70;99.90;;;;;;5048155;28;20226;-74
2024/02/11 07:26:40;;;;;;;8.75;7.95;;;7.70;99.90;;;;;;5043898;28;20813;-73
2024/02/11 07:29:09;;;;;;;9.45;8.52;;;7.70;99.90;;;;;;5049133;28;20278;-73
2024/02/11 07:31:37;;;;;;;8.85;8.05;;;7.70;99.90;;;;;;5045818;28;20236;-73
2024/02/11 07:34:05;;;;;;;8.27;7.57;;;7.80;99.90;;;;;;5048423;28;20223;-73
2024/02/11 07:36:32;;;;;;;7.60;6.93;;;7.80;99.90;;;;;;5044708;28;20226;-73
2024/02/11 07:38:59;;;;;;;7.82;7.03;;;7.90;99.90;;;;;;5047256;28;20821;-73
2024/02/11 07:41:29;;;;;;;6.88;6.28;;;7.90;99.90;;;;;;5045268;28;20250;-73
2024/02/11 07:43:56;;;;;;;7.75;7.05;;;7.90;99.90;;;;;;5050356;28;20203;-73
2024/02/11 07:46:25;;;;;;;7.43;6.82;;;8.00;99.90;;;;;;5052597;28;20276;-73
2024/02/11 07:48:53;;;;;;;7.88;7.10;;;8.00;99.90;;;;;;5050168;28;20608;-73
2024/02/11 07:51:21;;;;;;;8.00;7.30;;;8.00;99.90;;;;;;5052006;28;20244;-73
2024/02/11 07:53:50;;;;;;;8.20;7.50;;;8.10;99.90;;;;;;5064958;28;20296;-74
2024/02/11 07:56:18;;;;;;;9.20;8.40;;;8.10;99.90;;;;;;5048597;28;20226;-74
2024/02/11 07:58:46;;;;;;;9.48;8.48;;;8.10;99.90;;;;;;5048191;28;20293;-75
2024/02/11 08:01:13;;;;;;;8.27;7.55;;;8.10;99.90;;;;;;5047630;28;20269;-74
2024/02/11 08:03:41;;;;;;;8.27;7.57;;;8.20;99.90;;;;;;5044395;28;20199;-73
2024/02/11 08:06:09;;;;;;;8.30;7.55;;;8.20;99.90;;;;;;5048357;28;20272;-73
2024/02/11 08:08:37;;;;;;;8.60;7.80;;;8.30;99.90;;;;;;5049078;28;20202;-73
2024/02/11 08:11:05;;;;;;;9.50;8.70;;;8.30;99.90;;;;;;5043934;28;20299;-73
2024/02/11 08:13:32;;;;;;;9.35;8.45;;;8.30;99.90;;;;;;5046271;28;20299;-74
2024/02/11 08:16:00;;;;;;;9.07;8.27;;;8.40;99.90;;;;;;5043595;28;20234;-74
2024/02/11 08:18:28;;;;;;;10.02;9.13;;;8.40;99.90;;;;;;5053914;28;20830;-74
2024/02/11 08:20:57;;;;;;;9.63;8.82;;;8.40;99.90;;;;;;5044521;28;20221;-73
2024/02/11 08:23:24;;;;;;;9.73;8.90;;;8.40;99.90;;;;;;5043271;28;20301;-74
2024/02/11 08:25:52;;;;;;;9.98;8.98;;;8.40;99.90;;;;;;5045362;28;20640;-74
2024/02/11 08:28:19;;;;;;;9.60;8.80;;;8.40;99.90;;;;;;5046466;28;20594;-74
2024/02/11 08:30:46;;;;;;;10.07;9.20;;;8.50;99.90;;;;;;5047405;28;20223;-73
2024/02/11 08:33:14;;;;;;;9.23;8.32;;;8.50;99.90;;;;;;5050587;28;20300;-74
2024/02/11 08:35:41;;;;;;;9.50;8.60;;;8.60;99.90;;;;;;5026311;28;20254;-73
2024/02/11 08:38:10;;;;;;;10.10;9.20;;;8.80;99.90;;;;;;5043905;28;20203;-73
2024/02/11 08:40:37;;;;;;;10.07;9.13;;;9.20;99.90;;;;;;5048273;28;20250;-73
2024/02/11 08:43:05;;;;;;;9.57;8.77;;;9.40;99.90;;;;;;5044793;28;20673;-73
2024/02/11 08:45:32;;;;;;;9.68;8.70;;;9.60;99.90;;;;;;5046439;28;20231;-73
2024/02/11 08:48:00;;;;;;;9.23;8.45;;;9.80;99.90;;;;;;5047308;28;20697;-73
2024/02/11 08:50:27;;;;;;;9.13;8.32;;;9.90;99.90;;;;;;5043817;28;20754;-74
2024/02/11 08:52:56;;;;;;;9.63;8.75;;;10.00;99.90;;;;;;5045833;28;20219;-73
2024/02/11 08:55:25;;;;;;;7.78;7.18;;;9.90;99.90;;;;;;5038207;28;20736;-76
2024/02/11 08:57:52;;;;;;;6.70;6.15;;;9.70;99.90;;;;;;5043199;28;20229;-76
2024/02/11 09:00:22;;;;;;;6.80;6.30;;;9.50;99.90;;;;;;5046507;28;20246;-74
2024/02/11 09:02:49;;;;;;;7.72;7.03;;;9.30;99.90;;;;;;5044196;28;20290;-73
2024/02/11 09:05:16;;;;;;;6.88;6.28;;;9.10;99.90;;;;;;5051002;28;20255;-73
2024/02/11 09:07:43;;;;;;;13.57;6.82;;;9.00;99.90;;;;;;5053529;28;20237;-74
2024/02/11 09:10:13;;;;;;;7.93;7.22;;;8.90;99.90;;;;;;5045229;28;20768;-74
2024/02/11 09:12:42;;;;;;;7.72;7.10;;;8.80;99.90;;;;;;5054016;28;20828;-74
2024/02/11 09:15:10;;;;;;;6.65;6.15;;;8.70;99.90;;;;;;5045964;28;20255;-74
2024/02/11 09:17:43;;;;;;;6.45;5.85;;;8.70;99.90;;;;;;5046382;28;20214;-73
2024/02/11 09:20:13;;;;;;;6.00;5.50;;;8.70;99.90;;;;;;5046409;28;20310;-73
2024/02/11 09:22:42;;;;;;;5.95;5.50;;;8.70;99.90;;;;;;5044900;28;20200;-74
2024/02/11 09:25:11;;;;;;;6.95;6.45;;;8.70;99.90;;;;;;5043547;28;20817;-72
2024/02/11 09:27:39;;;;;;;6.43;5.93;;;8.60;99.90;;;;;;5047988;28;20203;-73
2024/02/11 09:30:11;;;;;;;6.30;5.80;;;8.60;99.90;;;;;;5046508;28;20224;-73
2024/02/11 09:32:39;;;;;;;5.95;5.35;;;8.70;99.90;;;;;;5049231;28;20202;-73
2024/02/11 09:35:07;;;;;;;6.38;5.88;;;8.70;99.90;;;;;;5042580;28;20237;-73
2024/02/11 09:37:34;;;;;;;6.43;5.93;;;8.80;99.90;;;;;;5043877;28;20195;-73
2024/02/11 09:40:02;;;;;;;6.40;5.90;;;8.80;99.90;;;;;;5048633;28;20658;-73
2024/02/11 09:42:30;;;;;;;7.60;6.95;;;8.90;99.90;;;;;;5047800;28;20229;-73
2024/02/11 09:44:59;;;;;;;6.85;6.35;;;8.90;99.90;;;;;;5040157;28;20231;-73
2024/02/11 09:47:28;;;;;;;7.07;6.53;;;8.90;99.90;;;;;;5042861;28;20202;-72
2024/02/11 09:50:00;;;;;;;7.45;6.85;;;8.90;99.90;;;;;;5045369;28;20223;-73
2024/02/11 09:52:29;;;;;;;8.00;7.35;;;9.00;99.90;;;;;;5043103;28;20249;-73
2024/02/11 09:54:56;;;;;;;6.90;6.38;;;8.90;99.90;;;;;;5037343;28;20720;-73
2024/02/11 09:57:24;;;;;;;7.78;7.15;;;8.80;99.90;;;;;;5051722;28;20313;-74
2024/02/11 09:59:51;;;;;;;8.00;7.30;;;8.70;99.90;;;;;;5038417;28;20762;-73
2024/02/11 10:02:19;;;;;;;9.23;8.32;;;8.70;99.90;;;;;;5059865;28;20204;-74
2024/02/11 10:04:49;;;;;;;7.63;7.00;;;8.70;99.90;;;;;;5041661;28;21841;-73
2024/02/11 10:07:34;;;;;;;7.55;6.95;;;8.60;99.90;;;;;;5041867;28;20202;-73
2024/02/11 10:10:02;;;;;;;7.03;6.53;;;8.60;99.90;;;;;;5038733;28;20230;-74
2024/02/11 10:12:32;;;;;;;7.55;6.95;;;8.50;99.90;;;;;;5051817;28;20774;-74
2024/02/11 10:14:59;;;;;;;8.10;7.40;;;8.60;99.90;;;;;;5046030;28;20481;-74
2024/02/11 10:17:31;;;;;;;9.52;8.45;;;8.60;99.90;;;;;;5051443;28;20178;-73
2024/02/11 10:20:00;;;;;;;23.15;8.35;;;8.60;99.90;;;;;;5060141;28;21501;-73
2024/02/11 10:22:29;;;;;;;33.63;9.05;;;8.60;99.90;;;;;;5044348;28;20202;-74
2024/02/11 10:24:57;;;;;;;50.22;10.13;;;8.50;99.90;;;;;;5044722;28;20254;-74
2024/02/11 10:27:25;;;;;;;7.95;7.10;;;8.50;99.90;;;;;;5048737;28;20221;-74
2024/02/11 10:29:53;;;;;;;42.50;9.52;;;8.50;99.90;;;;;;5045864;28;20195;-73
2024/02/11 10:32:21;;;;;;;22.88;8.55;;;8.50;99.90;;;;;;5048317;28;20302;-74
2024/02/11 10:34:48;;;;;;;148.18;13.98;;;8.40;99.90;;;;;;5045438;28;20567;-74
2024/02/11 10:37:36;;;;;;;259.10;19.65;;;8.40;99.90;;;;;;5033045;28;20625;-74
2024/02/11 10:40:08;;;;;;;244.05;17.50;;;8.40;99.90;;;;;;5042915;28;20226;-73
2024/02/11 10:42:35;;;;;;;22.88;8.50;;;8.30;99.90;;;;;;5043829;28;20211;-73
2024/02/11 10:45:04;;;;;;;426.67;22.67;;;8.30;99.90;;;;;;5047986;28;20716;-72
2024/02/11 10:47:36;;;;;;;192.52;14.82;;;8.30;99.90;;;;;;5045517;28;20202;-73
2024/02/11 10:50:04;;;;;;;147.32;13.27;;;8.20;99.90;;;;;;5047727;28;20222;-73
2024/02/11 10:52:39;;;;;;;13.68;7.32;;;8.20;99.90;;;;;;5044421;28;20225;-73
2024/02/11 10:55:11;;;;;;;92.68;11.63;;;8.30;99.90;;;;;;5047271;28;20226;-73
2024/02/11 10:57:50;;;;;;;127.70;12.93;;;8.30;99.90;;;;;;5044538;28;20219;-73
2024/02/11 11:00:20;;;;;;;30.83;8.07;;;8.30;99.90;;;;;;5044845;28;20241;-73
2024/02/11 11:02:50;;;;;;;10.10;6.80;;;8.30;99.90;;;;;;5047611;28;20194;-73
2024/02/11 11:05:21;;;;;;;50.50;11.52;;;8.40;99.90;;;;;;5044616;28;20758;-73
2024/02/11 11:07:53;;;;;;;19.35;8.00;;;8.40;99.90;;;;;;5043055;28;20206;-73
2024/02/11 11:10:20;;;;;;;35.05;9.27;;;8.40;99.90;;;;;;5040457;28;20223;-75
2024/02/11 11:12:49;;;;;;;7.70;7.07;;;8.50;99.90;;;;;;5049391;28;20238;-76
2024/02/11 11:15:23;;;;;;;6.70;6.15;;;8.60;99.90;;;;;;5044628;28;20288;-75
2024/02/11 11:17:50;;;;;;;6.60;6.10;;;8.70;99.90;;;;;;5050293;28;20203;-75
2024/02/11 11:20:19;;;;;;;7.90;7.30;;;8.80;99.90;;;;;;5045878;28;20346;-74
2024/02/11 11:22:52;;;;;;;7.32;6.65;;;8.90;99.90;;;;;;5046031;28;20208;-74
2024/02/11 11:25:21;;;;;;;73.70;10.07;;;8.90;99.90;;;;;;5039414;28;20277;-74
2024/02/11 11:27:50;;;;;;;9.27;7.80;;;9.00;99.90;;;;;;5040086;28;20195;-74
2024/02/11 11:30:18;;;;;;;11.23;7.20;;;9.00;99.90;;;;;;5057994;28;20222;-73
2024/02/11 11:32:47;;;;;;;6.88;6.35;;;9.10;99.90;;;;;;5052646;28;20253;-74
2024/02/11 11:35:17;;;;;;;13.60;6.90;;;9.30;99.90;;;;;;5041903;28;20225;-74
2024/02/11 11:37:46;;;;;;;33.53;7.90;;;9.60;99.90;;;;;;5046787;28;20198;-75
2024/02/11 11:40:16;;;;;;;10.75;7.38;;;9.80;99.90;;;;;;5044696;28;20230;-75
2024/02/11 11:42:45;;;;;;;12.25;6.60;;;9.80;99.90;;;;;;5043205;28;20202;-75
2024/02/11 11:45:12;;;;;;;8.52;6.22;;;9.70;99.90;;;;;;5039164;28;20222;-74
2024/02/11 11:47:51;;;;;;;9.20;6.07;;;9.70;99.90;;;;;;5046228;28;20671;-75
2024/02/11 11:50:19;;;;;;;6.30;5.80;;;9.70;99.90;;;;;;5043401;28;20265;-74
2024/02/11 11:52:47;;;;;;;5.85;5.40;;;9.70;99.90;;;;;;5038691;28;20289;-74
2024/02/11 11:55:16;;;;;;;5.32;4.93;;;9.60;99.90;;;;;;5043426;28;20303;-74
2024/02/11 11:57:43;;;;;;;4.90;4.50;;;9.50;99.90;;;;;;5045869;28;20276;-74
2024/02/11 12:00:12;;;;;;;4.78;4.40;;;9.40;99.90;;;;;;5043679;28;20319;-74
2024/02/11 12:02:39;;;;;;;4.20;3.90;;;9.30;99.90;;;;;;5045917;28;20687;-74
2024/02/11 12:05:08;;;;;;;5.03;4.63;;;9.30;99.90;;;;;;5044415;28;20312;-74
2024/02/11 12:07:35;;;;;;;4.75;4.45;;;9.30;99.90;;;;;;5039076;28;20202;-74
2024/02/11 12:10:05;;;;;;;5.13;3.85;;;9.20;99.90;;;;;;5043324;28;20711;-75
2024/02/11 12:12:34;;;;;;;4.72;4.30;;;9.20;99.90;;;;;;5044391;28;20199;-74
2024/02/11 12:15:03;;;;;;;3.58;3.38;;;9.10;99.90;;;;;;5046506;28;20226;-74
2024/02/11 12:17:31;;;;;;;3.65;3.45;;;9.10;99.90;;;;;;5043137;28;20286;-74
2024/02/11 12:20:00;;;;;;;2.88;2.67;;;9.10;99.90;;;;;;5042862;28;21384;-74
2024/02/11 12:22:27;;;;;;;3.22;3.00;;;9.10;99.90;;;;;;5043078;28;20196;-74
2024/02/11 12:24:54;;;;;;;3.42;3.22;;;9.10;99.90;;;;;;5038462;28;20712;-75
2024/02/11 12:27:21;;;;;;;3.22;2.92;;;9.20;99.90;;;;;;5040008;28;20912;-74
2024/02/11 12:29:56;;;;;;;3.58;3.30;;;9.20;99.90;;;;;;5043420;28;20273;-74
2024/02/11 12:32:23;;;;;;;3.65;3.45;;;9.20;99.90;;;;;;5042214;28;20913;-74
2024/02/11 12:34:50;;;;;;;4.40;4.10;;;9.30;99.90;;;;;;5038597;28;20293;-74
2024/02/11 12:37:17;;;;;;;5.40;4.63;;;9.30;99.90;;;;;;5042721;28;20230;-73
2024/02/11 12:39:45;;;;;;;4.60;4.20;;;9.30;99.90;;;;;;5036189;28;20741;-74
2024/02/11 12:42:12;;;;;;;4.65;4.25;;;9.40;99.90;;;;;;5046823;28;20223;-74
2024/02/11 12:44:40;;;;;;;4.57;4.15;;;9.50;99.90;;;;;;5058295;28;20213;-74
2024/02/11 12:47:09;;;;;;;4.38;4.07;;;9.50;99.90;;;;;;5045603;28;20268;-73
2024/02/11 12:49:38;;;;;;;3.65;3.45;;;9.50;99.90;;;;;;5047908;28;20191;-74
2024/02/11 12:52:06;;;;;;;3.63;3.35;;;9.50;99.90;;;;;;5052068;28;20428;-77
2024/02/11 12:54:34;;;;;;;3.17;2.97;;;9.50;99.90;;;;;;5052831;28;20218;-76
2024/02/11 12:57:01;;;;;;;2.88;2.70;;;9.60;99.90;;;;;;5046486;28;20751;-76
2024/02/11 12:59:29;;;;;;;2.80;2.60;;;9.70;99.90;;;;;;5048073;28;20219;-75
2024/02/11 13:01:57;;;;;;;2.22;2.13;;;9.70;99.90;;;;;;5047664;28;20305;-74